Time;durP1;ratioP1;P1;durP2;ratioP2;P2;SDS_P1;SDS_P2;PMS_P1;PMS_P2;Temp;Humidity;BMP_temperature;BMP_pressure;BME280_temperature;BME280_humidity;BME280_pressure;Samples;Min_cycle;Max_cycle;Signal;HPM_P1;HPM_P2
2023/07/25 00:00:30;;;;;;;1.75;0.32;;;16.10;99.90;;;15.41;100.00;100568.56;3996506;29;20031;-74
2023/07/25 00:02:31;;;;;;;1.92;0.30;;;16.10;99.90;;;15.45;100.00;100569.03;3996746;29;20026;-74
2023/07/25 00:04:31;;;;;;;1.27;0.32;;;16.10;99.90;;;15.46;100.00;100582.13;3996519;29;20038;-74
2023/07/25 00:06:32;;;;;;;1.75;0.30;;;16.10;99.90;;;15.42;100.00;100575.56;3996150;29;20041;-74
2023/07/25 00:08:33;;;;;;;1.67;0.45;;;16.10;99.90;;;15.46;100.00;100576.00;3995136;29;20034;-74
2023/07/25 00:10:34;;;;;;;0.70;0.30;;;16.10;99.90;;;15.43;100.00;100571.88;3994404;29;20031;-74
2023/07/25 00:12:37;;;;;;;1.20;0.40;;;16.10;99.90;;;15.40;100.00;100577.59;3980486;29;20050;-74
2023/07/25 00:14:38;;;;;;;1.27;0.40;;;16.10;99.90;;;15.42;100.00;100575.56;3965052;29;20027;-74
2023/07/25 00:16:38;;;;;;;2.80;0.50;;;16.10;99.90;;;15.45;100.00;100577.81;3980042;29;20519;-74
2023/07/25 00:18:39;;;;;;;0.40;0.22;;;16.10;99.90;;;15.40;100.00;100569.63;3989667;29;20441;-74
2023/07/25 00:20:40;;;;;;;3.05;1.17;;;16.10;99.90;;;15.48;100.00;100579.31;3992183;29;20026;-74
2023/07/25 00:22:41;;;;;;;3.65;0.50;;;16.10;99.90;;;15.38;100.00;100582.25;3975997;29;20055;-74
2023/07/25 00:24:42;;;;;;;2.33;0.32;;;16.10;99.90;;;15.45;100.00;100587.63;3995961;29;20075;-74
2023/07/25 00:26:43;;;;;;;0.90;0.25;;;16.10;99.90;;;15.42;100.00;100585.34;3996299;29;20027;-74
2023/07/25 00:28:44;;;;;;;1.38;0.30;;;16.10;99.90;;;15.34;100.00;100588.97;3996401;29;20045;-74
2023/07/25 00:30:44;;;;;;;1.00;0.30;;;16.00;99.90;;;15.29;100.00;100586.06;3993106;29;20034;-74
2023/07/25 00:32:45;;;;;;;2.15;0.40;;;16.00;99.90;;;15.34;100.00;100604.09;3979114;29;20572;-74
2023/07/25 00:34:49;;;;;;;4.47;0.80;;;16.00;99.90;;;15.33;100.00;100594.47;3996417;29;20440;-74
2023/07/25 00:36:51;;;;;;;;;;;16.00;99.90;;;15.22;100.00;100590.50;3977293;29;20507;-74
2023/07/25 00:38:52;;;;;;;1.63;0.35;;;15.90;99.90;;;15.24;100.00;100587.63;3977727;29;19913;-74
2023/07/25 00:40:53;;;;;;;1.60;0.32;;;15.90;99.90;;;15.26;100.00;100593.59;3979674;29;20023;-74
2023/07/25 00:42:57;;;;;;;1.45;0.50;;;15.90;99.90;;;15.22;100.00;100593.16;3996042;29;20050;-74
2023/07/25 00:44:58;;;;;;;1.60;0.40;;;15.80;99.90;;;15.23;100.00;100592.13;3996143;29;20041;-74
2023/07/25 00:46:59;;;;;;;2.40;0.40;;;15.90;99.90;;;15.13;100.00;100591.63;3996033;29;20495;-74
2023/07/25 00:49:01;;;;;;;1.45;0.47;;;15.80;99.90;;;15.10;100.00;100592.00;3995990;29;20087;-74
2023/07/25 00:51:03;;;;;;;0.82;0.40;;;15.80;99.90;;;15.14;100.00;100589.81;3979555;29;20027;-74
2023/07/25 00:53:09;;;;;;;1.90;0.40;;;15.80;99.90;;;15.14;100.00;100592.47;3979826;29;20035;-74
2023/07/25 00:55:11;;;;;;;0.90;0.30;;;15.80;99.90;;;15.18;100.00;100591.06;3979479;29;20121;-74
2023/07/25 00:57:12;;;;;;;1.42;0.60;;;15.80;99.90;;;15.12;100.00;100603.25;3994667;29;20026;-74
2023/07/25 00:59:13;;;;;;;1.63;0.50;;;15.80;99.90;;;15.16;100.00;100609.84;3979743;29;20058;-74
2023/07/25 01:01:14;;;;;;;1.02;0.43;;;15.80;99.90;;;15.14;100.00;100595.91;3995922;29;20022;-74
2023/07/25 01:03:15;;;;;;;3.92;1.08;;;15.80;99.90;;;15.15;100.00;100602.88;3979448;29;20035;-74
2023/07/25 01:05:16;;;;;;;2.22;0.60;;;15.80;99.90;;;15.12;100.00;100599.78;3978407;29;20052;-74
2023/07/25 01:07:17;;;;;;;1.85;0.63;;;15.80;99.90;;;15.15;100.00;100610.03;3975681;29;20043;-74
2023/07/25 01:09:44;;;;;;;1.13;0.57;;;15.80;99.90;;;15.19;100.00;100606.00;3996093;29;20483;-74
2023/07/25 01:11:45;;;;;;;1.10;0.60;;;15.80;99.90;;;15.15;100.00;100602.06;3995687;29;20035;-74
2023/07/25 01:13:47;;;;;;;2.25;0.80;;;15.80;99.90;;;15.20;100.00;100597.03;3979564;29;20022;-74
2023/07/25 01:15:50;;;;;;;2.80;1.00;;;15.80;99.90;;;15.18;100.00;100602.50;3977533;29;20061;-74
2023/07/25 01:17:51;;;;;;;4.22;1.40;;;15.80;99.90;;;15.14;100.00;100598.56;3979484;29;20490;-74
2023/07/25 01:19:53;;;;;;;4.53;1.38;;;15.80;99.90;;;15.19;100.00;100604.16;3979304;29;20051;-74
2023/07/25 01:21:54;;;;;;;2.70;1.38;;;15.90;99.90;;;15.15;100.00;100605.53;3979216;29;20491;-74
2023/07/25 01:24:02;;;;;;;4.82;1.52;;;15.80;99.90;;;15.19;100.00;100606.81;3964228;30;20115;-74
2023/07/25 01:26:03;;;;;;;2.58;1.60;;;15.90;99.90;;;15.13;100.00;100614.72;3968749;29;20039;-75
2023/07/25 01:28:04;;;;;;;2.72;1.67;;;15.80;99.90;;;15.12;100.00;100611.22;3995809;29;20041;-74
2023/07/25 01:30:06;;;;;;;2.28;1.30;;;15.80;99.90;;;15.14;100.00;100627.00;3979445;29;20110;-74
2023/07/25 01:32:08;;;;;;;3.22;1.25;;;15.80;99.90;;;15.20;100.00;100612.97;3995382;29;20037;-74
2023/07/25 01:34:08;;;;;;;3.70;1.95;;;15.80;99.90;;;15.15;100.00;100618.81;3979496;29;20074;-74
2023/07/25 01:36:09;;;;;;;2.58;1.35;;;15.80;99.90;;;15.17;100.00;100618.66;3980372;29;20027;-74
2023/07/25 01:38:10;;;;;;;3.95;1.67;;;15.80;99.90;;;15.17;100.00;100616.00;3994544;29;20031;-74
2023/07/25 01:40:12;;;;;;;6.80;1.52;;;15.80;99.90;;;15.22;100.00;100618.91;3998542;29;20495;-74
2023/07/25 01:42:13;;;;;;;5.35;2.45;;;15.80;99.90;;;15.15;100.00;100624.13;3998181;29;20026;-74
2023/07/25 01:44:13;;;;;;;2.15;1.52;;;15.80;99.90;;;15.15;100.00;100628.63;3982438;29;20023;-74
2023/07/25 01:46:14;;;;;;;3.50;1.90;;;15.80;99.90;;;15.15;100.00;100626.78;3998517;29;20082;-74
2023/07/25 01:48:15;;;;;;;4.50;1.88;;;15.80;99.90;;;15.05;100.00;100626.31;3998480;29;20038;-74
2023/07/25 01:50:17;;;;;;;4.13;1.83;;;15.80;99.90;;;15.04;100.00;100629.97;3981879;29;20026;-74
2023/07/25 01:52:18;;;;;;;1.85;1.50;;;15.80;99.90;;;15.09;100.00;100635.53;3998223;29;20051;-74
2023/07/25 01:54:19;;;;;;;3.67;1.77;;;15.80;99.90;;;15.11;100.00;100627.38;3998239;29;20053;-74
2023/07/25 01:56:23;;;;;;;4.68;1.60;;;15.70;99.90;;;15.05;100.00;100620.97;3998237;29;20455;-74
2023/07/25 01:58:23;;;;;;;2.78;1.58;;;15.70;99.90;;;15.04;100.00;100621.97;3997217;29;20107;-74
2023/07/25 02:00:24;;;;;;;3.45;1.48;;;15.70;99.90;;;15.06;100.00;100622.59;3982007;29;20038;-74
2023/07/25 02:02:25;;;;;;;6.07;2.40;;;15.70;99.90;;;14.98;100.00;100625.38;3981966;29;20564;-74
2023/07/25 02:04:26;;;;;;;2.65;1.50;;;15.60;99.90;;;14.90;100.00;100617.53;3994430;29;20023;-74
2023/07/25 02:06:27;;;;;;;4.13;1.63;;;15.60;99.90;;;14.82;100.00;100614.97;3993655;29;20063;-74
2023/07/25 02:08:28;;;;;;;4.13;1.85;;;15.50;99.90;;;14.77;100.00;100626.16;3993746;29;20019;-74
2023/07/25 02:10:29;;;;;;;2.83;1.95;;;15.50;99.90;;;14.76;100.00;100618.38;3978044;29;20038;-74
2023/07/25 02:12:30;;;;;;;5.95;1.88;;;15.50;99.90;;;14.74;100.00;100623.06;3992049;29;20022;-74
2023/07/25 02:14:31;;;;;;;3.45;2.20;;;15.40;99.90;;;14.74;100.00;100615.09;3976208;29;20037;-74
2023/07/25 02:16:36;;;;;;;2.30;1.95;;;15.40;99.90;;;14.78;100.00;100608.41;3992993;29;20038;-74
2023/07/25 02:18:37;;;;;;;3.50;2.63;;;15.40;99.90;;;14.70;100.00;100616.47;3975712;29;20023;-74
2023/07/25 02:20:38;;;;;;;6.07;2.22;;;15.40;99.90;;;14.70;100.00;100619.13;3989236;29;20026;-74
2023/07/25 02:22:38;;;;;;;4.93;2.33;;;15.40;99.90;;;14.74;100.00;100623.88;3990747;29;20046;-74
2023/07/25 02:24:39;;;;;;;3.50;1.88;;;15.40;99.90;;;14.75;100.00;100628.19;3977818;29;20030;-74
2023/07/25 02:26:40;;;;;;;5.68;2.70;;;15.40;99.90;;;14.72;100.00;100625.09;3993680;29;20038;-74
2023/07/25 02:28:41;;;;;;;6.55;2.65;;;15.40;99.90;;;14.74;100.00;100631.03;3976243;29;20473;-74
2023/07/25 02:30:42;;;;;;;6.68;2.65;;;15.40;99.90;;;14.82;100.00;100630.91;3972514;29;20030;-74
2023/07/25 02:32:43;;;;;;;7.70;2.72;;;15.40;99.90;;;14.80;100.00;100620.47;3988843;29;20035;-74
2023/07/25 02:34:44;;;;;;;5.00;2.10;;;15.40;99.90;;;14.79;100.00;100626.78;3993652;29;20041;-74
2023/07/25 02:36:44;;;;;;;2.40;1.73;;;15.50;99.90;;;14.83;100.00;100635.22;3976051;29;20039;-74
2023/07/25 02:38:45;;;;;;;4.60;2.20;;;15.40;99.90;;;14.73;100.00;100632.84;3994084;29;20518;-74
2023/07/25 02:40:46;;;;;;;6.68;2.90;;;15.40;99.90;;;14.80;100.00;100633.75;3973027;29;20026;-74
2023/07/25 02:42:47;;;;;;;4.28;2.40;;;15.40;99.90;;;14.77;100.00;100630.66;3986956;29;20023;-74
2023/07/25 02:44:48;;;;;;;3.03;1.85;;;15.40;99.90;;;14.80;100.00;100630.28;3973451;29;20027;-74
2023/07/25 02:46:49;;;;;;;3.45;1.95;;;15.40;99.90;;;14.80;100.00;100625.81;3973671;29;20039;-74
2023/07/25 02:48:49;;;;;;;3.60;1.60;;;15.50;99.90;;;14.76;100.00;100626.34;3993676;29;20564;-74
2023/07/25 02:50:50;;;;;;;5.43;1.98;;;15.40;99.90;;;14.80;100.00;100627.63;3989688;29;20461;-74
2023/07/25 02:52:51;;;;;;;4.20;1.80;;;15.40;99.90;;;14.76;100.00;100626.34;3989363;29;20031;-74
2023/07/25 02:54:52;;;;;;;2.50;1.50;;;15.40;99.90;;;14.79;100.00;100626.78;3973974;29;20035;-74
2023/07/25 02:56:53;;;;;;;8.43;1.77;;;15.40;99.90;;;14.78;100.00;100630.44;3975145;29;20531;-74
2023/07/25 02:58:54;;;;;;;4.43;1.60;;;15.40;99.90;;;14.67;100.00;100627.44;3991960;29;20023;-74
2023/07/25 03:00:54;;;;;;;3.58;1.95;;;15.40;99.90;;;14.54;100.00;100614.03;3993425;29;20038;-74
2023/07/25 03:02:56;;;;;;;8.48;1.52;;;15.40;99.90;;;14.72;100.00;100639.19;3990272;29;20030;-74
2023/07/25 03:04:56;;;;;;;6.45;1.52;;;15.40;99.90;;;14.70;100.00;100635.03;3992449;29;20019;-74
2023/07/25 03:06:57;;;;;;;5.90;1.92;;;15.40;99.90;;;14.68;100.00;100643.22;3976953;29;20030;-74
2023/07/25 03:08:58;;;;;;;4.57;1.80;;;15.40;99.90;;;14.73;100.00;100635.50;3989219;29;20035;-74
2023/07/25 03:10:59;;;;;;;3.50;1.58;;;15.40;99.90;;;14.68;100.00;100634.41;3988353;29;20499;-74
2023/07/25 03:13:00;;;;;;;3.28;1.85;;;15.40;99.90;;;14.70;100.00;100627.09;3990475;29;20499;-74
2023/07/25 03:15:02;;;;;;;5.38;1.60;;;15.40;99.90;;;14.71;100.00;100634.03;3977076;29;20057;-74
2023/07/25 03:17:03;;;;;;;5.40;2.08;;;15.40;99.90;;;14.66;100.00;100631.13;3976119;29;20030;-74
2023/07/25 03:19:04;;;;;;;4.40;2.00;;;15.30;99.90;;;14.60;100.00;100632.69;3990528;29;20037;-74
2023/07/25 03:21:04;;;;;;;4.15;1.80;;;15.30;99.90;;;14.64;100.00;100649.06;3971471;29;20031;-74
2023/07/25 03:23:05;;;;;;;4.03;1.65;;;15.30;99.90;;;14.60;100.00;100648.63;3986984;29;20050;-74
2023/07/25 03:25:07;;;;;;;5.75;1.33;;;15.30;99.90;;;14.58;100.00;100645.31;3976818;29;20030;-74
2023/07/25 03:27:08;;;;;;;6.85;2.38;;;15.20;99.90;;;14.51;100.00;100652.38;3991074;29;20103;-74
2023/07/25 03:29:08;;;;;;;7.20;1.90;;;15.20;99.90;;;14.50;100.00;100652.56;3975876;29;20031;-74
2023/07/25 03:31:09;;;;;;;4.78;1.83;;;15.20;99.90;;;14.50;100.00;100658.69;3974468;29;20478;-74
2023/07/25 03:33:10;;;;;;;5.35;2.30;;;15.20;99.90;;;14.46;100.00;100657.41;3992199;29;20026;-74
2023/07/25 03:35:11;;;;;;;7.65;2.28;;;15.20;99.90;;;14.54;100.00;100656.50;3973462;29;20447;-74
2023/07/25 03:37:12;;;;;;;9.35;2.20;;;15.10;99.90;;;14.49;100.00;100669.47;3976832;29;20030;-74
2023/07/25 03:39:13;;;;;;;7.88;2.58;;;15.10;99.90;;;14.49;100.00;100672.13;3988752;29;20041;-74
2023/07/25 03:41:13;;;;;;;4.38;1.98;;;15.10;99.90;;;14.46;100.00;100673.31;3980405;29;20516;-74
2023/07/25 03:43:14;;;;;;;9.70;2.50;;;15.10;99.90;;;14.48;100.00;100670.50;3990346;29;20027;-74
2023/07/25 03:45:15;;;;;;;7.03;2.28;;;15.10;99.90;;;14.40;100.00;100669.56;3991158;29;20076;-74
2023/07/25 03:47:16;;;;;;;6.07;2.50;;;15.10;99.90;;;14.38;100.00;100674.25;3992483;29;20559;-74
2023/07/25 03:49:17;;;;;;;3.97;1.83;;;15.10;99.90;;;14.37;100.00;100675.25;3986272;29;20023;-74
2023/07/25 03:51:18;;;;;;;7.90;2.83;;;15.10;99.90;;;14.37;100.00;100675.25;3975639;29;20043;-74
2023/07/25 03:53:19;;;;;;;10.98;2.67;;;15.10;99.90;;;14.35;100.00;100687.06;3973207;29;20027;-74
2023/07/25 03:55:20;;;;;;;9.95;2.65;;;15.10;99.90;;;14.37;100.00;100683.19;3992441;29;20035;-74
2023/07/25 03:57:21;;;;;;;10.52;2.88;;;15.00;99.90;;;14.35;100.00;100677.25;3979863;29;20034;-74
2023/07/25 03:59:22;;;;;;;9.35;2.90;;;15.00;99.90;;;14.31;100.00;100681.25;3987696;29;20022;-74
2023/07/25 04:01:23;;;;;;;10.50;2.75;;;15.00;99.90;;;14.38;100.00;100681.38;3973914;29;20022;-74
2023/07/25 04:03:24;;;;;;;7.53;2.70;;;15.00;99.90;;;14.30;100.00;100679.63;3974683;29;20098;-74
2023/07/25 04:05:24;;;;;;;13.07;2.60;;;15.00;99.90;;;14.36;100.00;100681.56;3989092;29;20026;-74
2023/07/25 04:07:25;;;;;;;11.30;2.78;;;15.00;99.90;;;14.36;100.00;100678.91;3974868;29;20038;-74
2023/07/25 04:09:26;;;;;;;11.60;3.63;;;15.00;99.90;;;14.36;100.00;100688.72;3972902;29;20084;-74
2023/07/25 04:11:27;;;;;;;7.65;2.70;;;15.00;99.90;;;14.33;100.00;100679.28;3986893;29;20058;-74
2023/07/25 04:13:28;;;;;;;9.10;2.85;;;15.00;99.90;;;14.34;100.00;100680.91;3976449;29;20026;-74
2023/07/25 04:15:29;;;;;;;9.55;3.42;;;15.00;99.90;;;14.33;100.00;100681.94;3975316;29;20435;-74
2023/07/25 04:17:29;;;;;;;7.93;3.35;;;15.00;99.90;;;14.34;100.00;100685.41;3973454;29;20101;-74
2023/07/25 04:19:30;;;;;;;8.32;2.95;;;15.00;99.90;;;14.33;100.00;100687.25;3973976;29;20035;-74
2023/07/25 04:21:31;;;;;;;8.50;2.67;;;15.00;99.90;;;14.33;100.00;100697.88;3987725;29;20026;-74
2023/07/25 04:23:32;;;;;;;9.38;2.47;;;15.00;99.90;;;14.32;100.00;100704.16;3991913;29;20069;-74
2023/07/25 04:25:33;;;;;;;8.02;2.50;;;15.00;99.90;;;14.37;100.00;100706.25;3989683;29;20027;-74
2023/07/25 04:27:34;;;;;;;6.95;3.03;;;15.00;99.90;;;14.33;100.00;100702.34;3991461;29;20049;-74
2023/07/25 04:29:35;;;;;;;9.20;3.65;;;15.00;99.90;;;14.34;100.00;100706.63;3989191;29;20525;-74
2023/07/25 04:31:35;;;;;;;8.63;3.20;;;15.00;99.90;;;14.31;100.00;100699.00;3992207;29;20034;-74
2023/07/25 04:33:36;;;;;;;13.82;3.70;;;15.10;99.90;;;14.29;100.00;100704.50;3989006;29;20034;-74
2023/07/25 04:35:37;;;;;;;9.13;2.95;;;15.00;99.90;;;14.31;100.00;100705.13;3974806;29;20103;-74
2023/07/25 04:37:38;;;;;;;12.57;3.50;;;15.00;99.90;;;14.37;100.00;100711.56;3991604;29;20034;-74
2023/07/25 04:39:39;;;;;;;12.80;2.83;;;15.00;99.90;;;14.31;100.00;100710.44;3988061;29;20030;-74
2023/07/25 04:41:40;;;;;;;10.13;3.20;;;15.00;99.90;;;14.32;100.00;100712.13;3974567;29;20060;-74
2023/07/25 04:43:40;;;;;;;9.15;2.60;;;15.00;99.90;;;14.38;100.00;100714.06;3973071;29;20033;-74
2023/07/25 04:45:41;;;;;;;8.55;3.17;;;15.00;99.90;;;14.32;100.00;100725.41;3991888;29;20030;-74
2023/07/25 04:47:42;;;;;;;8.25;2.70;;;15.00;99.90;;;14.38;100.00;100719.38;3991956;29;20521;-74
2023/07/25 04:49:43;;;;;;;8.57;2.58;;;15.00;99.90;;;14.32;100.00;100728.03;3973198;29;20439;-74
2023/07/25 04:51:44;;;;;;;9.20;4.10;;;15.00;99.90;;;14.27;100.00;100732.22;3972838;29;20591;-74
2023/07/25 04:53:45;;;;;;;10.32;3.25;;;15.00;99.90;;;14.20;100.00;100720.66;3990567;29;20047;-74
2023/07/25 04:55:46;;;;;;;12.48;3.17;;;15.00;99.90;;;14.19;100.00;100732.28;3991749;29;20084;-74
2023/07/25 04:57:49;;;;;;;7.97;3.35;;;14.90;99.90;;;14.18;100.00;100728.81;3989505;29;20022;-74
2023/07/25 04:59:50;;;;;;;9.13;3.45;;;14.90;99.90;;;14.12;100.00;100737.50;3976028;29;20030;-74
2023/07/25 05:01:51;;;;;;;7.53;3.00;;;14.80;99.90;;;14.08;100.00;100732.72;3973965;29;20035;-74
2023/07/25 05:03:51;;;;;;;7.80;2.70;;;14.80;99.90;;;14.08;100.00;100741.50;3972901;29;20114;-74
2023/07/25 05:05:55;;;;;;;9.27;2.80;;;14.80;99.90;;;14.12;100.00;100749.94;3991445;29;20022;-74
2023/07/25 05:07:55;;;;;;;9.23;3.07;;;14.80;99.90;;;14.12;100.00;100734.00;3972329;29;20046;-74
2023/07/25 05:09:56;;;;;;;6.50;3.15;;;14.80;99.90;;;14.10;100.00;100749.25;3970608;29;20052;-74
2023/07/25 05:11:57;;;;;;;11.82;2.75;;;14.80;99.90;;;14.11;100.00;100748.25;3990529;29;20030;-74
2023/07/25 05:13:58;;;;;;;9.63;2.95;;;14.80;99.90;;;14.14;100.00;100759.34;3958027;30;20050;-74
2023/07/25 05:15:59;;;;;;;7.40;2.80;;;14.80;99.90;;;14.07;100.00;100750.44;3990740;29;20031;-74
2023/07/25 05:18:00;;;;;;;16.10;3.28;;;14.80;99.90;;;14.10;100.00;100757.22;3989593;29;20030;-74
2023/07/25 05:20:00;;;;;;;9.65;3.30;;;14.70;99.90;;;14.10;100.00;100755.41;3979202;29;20423;-74
2023/07/25 05:22:01;;;;;;;6.05;2.83;;;14.70;99.90;;;14.08;100.00;100753.94;3995688;29;20038;-74
2023/07/25 05:24:03;;;;;;;6.07;3.13;;;14.80;99.90;;;14.13;100.00;100757.69;3995890;29;20038;-74
2023/07/25 05:26:03;;;;;;;13.27;2.70;;;14.80;99.90;;;14.15;100.00;100762.84;3993379;29;20093;-74
2023/07/25 05:28:04;;;;;;;7.70;2.33;;;14.80;99.90;;;14.22;100.00;100769.88;3983686;29;20031;-74
2023/07/25 05:30:06;;;;;;;7.85;2.50;;;14.80;99.90;;;14.23;100.00;100763.59;3988665;29;20571;-74
2023/07/25 05:32:07;;;;;;;9.18;2.30;;;14.80;99.90;;;14.25;100.00;100758.91;3995671;29;20039;-74
2023/07/25 05:34:08;;;;;;;7.75;2.20;;;14.90;99.90;;;14.28;100.00;100769.16;3995469;29;20030;-74
2023/07/25 05:36:09;;;;;;;11.48;2.97;;;14.90;99.90;;;14.33;100.00;100781.94;3979026;29;20031;-74
2023/07/25 05:38:10;;;;;;;11.52;2.80;;;14.90;99.90;;;14.31;100.00;100776.78;3979127;29;20120;-74
2023/07/25 05:40:11;;;;;;;7.63;2.60;;;15.00;99.90;;;14.40;100.00;100769.59;3989083;29;20027;-74
2023/07/25 05:42:12;;;;;;;8.52;2.60;;;15.00;99.90;;;14.37;100.00;100773.44;3993349;29;20523;-74
2023/07/25 05:44:13;;;;;;;8.77;2.42;;;15.00;99.90;;;14.39;100.00;100783.88;3978624;29;20027;-75
2023/07/25 05:46:14;;;;;;;8.25;3.08;;;15.00;99.90;;;14.29;100.00;100773.47;3993588;29;20110;-74
2023/07/25 05:48:15;;;;;;;5.38;2.25;;;15.00;99.90;;;14.31;100.00;100782.09;3979199;29;20131;-74
2023/07/25 05:50:16;;;;;;;7.80;2.97;;;15.00;99.90;;;14.24;100.00;100775.84;3995444;29;20038;-74
2023/07/25 05:52:17;;;;;;;5.35;2.17;;;14.90;99.90;;;14.21;100.00;100781.53;3975075;29;20035;-74
2023/07/25 05:54:17;;;;;;;7.45;2.58;;;14.90;99.90;;;14.20;100.00;100779.03;3985598;29;20518;-74
2023/07/25 05:56:18;;;;;;;7.60;1.95;;;14.80;99.90;;;14.17;100.00;100790.84;3989265;29;20039;-74
2023/07/25 05:58:19;;;;;;;7.20;2.38;;;14.80;99.90;;;14.08;100.00;100791.06;3990758;29;20414;-74
2023/07/25 06:00:20;;;;;;;5.72;2.80;;;14.80;99.90;;;14.05;100.00;100791.41;3971214;29;20041;-74
2023/07/25 06:02:21;;;;;;;8.25;2.30;;;14.70;99.90;;;14.09;100.00;100788.25;3991174;29;20060;-74
2023/07/25 06:04:22;;;;;;;6.45;2.28;;;14.70;99.90;;;14.08;100.00;100794.53;3973389;29;20084;-74
2023/07/25 06:06:23;;;;;;;8.70;2.55;;;14.70;99.90;;;14.01;100.00;100784.84;3970517;29;20389;-74
2023/07/25 06:08:24;;;;;;;6.07;2.40;;;14.70;99.90;;;14.07;100.00;100803.50;3987373;29;20396;-74
2023/07/25 06:10:24;;;;;;;6.22;2.40;;;14.70;99.90;;;14.04;100.00;100803.03;3974588;29;20105;-74
2023/07/25 06:12:25;;;;;;;6.57;2.83;;;14.70;99.90;;;14.10;100.00;100811.09;3971653;29;20035;-74
2023/07/25 06:14:26;;;;;;;4.95;2.08;;;14.70;99.90;;;14.10;100.00;100810.28;3983171;29;20117;-74
2023/07/25 06:16:27;;;;;;;9.52;3.03;;;14.70;99.90;;;14.04;100.00;100810.97;3984273;29;20056;-74
2023/07/25 06:18:28;;;;;;;10.13;2.80;;;14.70;99.90;;;14.16;100.00;100818.34;3976961;29;20052;-74
2023/07/25 06:20:31;;;;;;;8.27;2.80;;;14.70;99.90;;;14.14;100.00;100817.72;3987629;29;20027;-74
2023/07/25 06:22:34;;;;;;;7.45;2.42;;;14.70;99.90;;;14.17;100.00;100814.72;3972867;29;20071;-75
2023/07/25 06:24:35;;;;;;;8.02;2.15;;;14.80;99.90;;;14.17;100.00;100820.00;3988091;29;20109;-74
2023/07/25 06:26:36;;;;;;;6.47;2.50;;;14.80;99.90;;;14.19;100.00;100818.00;3977723;29;20087;-74
2023/07/25 06:28:37;;;;;;;8.90;2.50;;;14.80;99.90;;;14.31;100.00;100829.00;3993403;29;20486;-73
2023/07/25 06:30:38;;;;;;;7.60;2.30;;;14.90;99.90;;;14.32;100.00;100831.53;3975103;29;20034;-74
2023/07/25 06:32:39;;;;;;;10.65;2.50;;;14.90;99.90;;;14.36;100.00;100832.00;3973730;29;20039;-74
2023/07/25 06:34:40;;;;;;;5.55;2.20;;;15.00;99.90;;;14.46;100.00;100834.41;3971241;29;20031;-74
2023/07/25 06:36:40;;;;;;;10.88;2.53;;;15.00;99.90;;;14.62;100.00;100836.91;3993229;29;20041;-74
2023/07/25 06:38:41;;;;;;;11.95;2.67;;;15.10;99.90;;;14.67;100.00;100834.53;3992011;29;20453;-75
2023/07/25 06:40:42;;;;;;;6.80;2.35;;;15.10;99.90;;;14.71;100.00;100838.50;3990611;29;20031;-74
2023/07/25 06:42:43;;;;;;;6.65;2.03;;;15.20;99.90;;;14.72;100.00;100845.47;3973383;29;20041;-75
2023/07/25 06:44:44;;;;;;;7.40;2.78;;;15.20;99.90;;;14.89;100.00;100845.13;3988888;29;20027;-74
2023/07/25 06:46:45;;;;;;;7.45;1.98;;;15.30;99.90;;;15.01;100.00;100852.66;3958938;30;20035;-75
2023/07/25 06:48:46;;;;;;;5.43;1.88;;;15.40;99.90;;;15.00;100.00;100853.63;3992538;29;20038;-74
2023/07/25 06:50:46;;;;;;;7.22;2.28;;;15.40;99.90;;;14.85;100.00;100859.78;3993191;29;20506;-75
2023/07/25 06:52:47;;;;;;;5.30;2.40;;;15.40;99.90;;;14.88;100.00;100853.25;3977002;29;20115;-75
2023/07/25 06:54:48;;;;;;;5.60;2.30;;;15.50;99.90;;;14.86;100.00;100856.13;3974056;29;20034;-75
2023/07/25 06:56:49;;;;;;;8.45;2.72;;;15.50;99.90;;;14.84;100.00;100857.31;3976581;29;20046;-74
2023/07/25 06:58:50;;;;;;;9.57;2.80;;;15.50;99.90;;;14.90;100.00;100867.22;3975352;29;20034;-75
2023/07/25 07:00:50;;;;;;;5.53;1.58;;;15.50;99.90;;;14.90;100.00;100862.69;3988162;29;20023;-75
2023/07/25 07:02:51;;;;;;;5.57;2.00;;;15.50;99.90;;;14.97;100.00;100868.13;3991763;29;20027;-75
2023/07/25 07:04:52;;;;;;;4.47;1.80;;;15.50;99.90;;;15.08;100.00;100862.38;3990828;29;20480;-75
2023/07/25 07:06:53;;;;;;;10.73;2.13;;;15.60;99.90;;;15.12;100.00;100865.47;3993255;29;20180;-76
2023/07/25 07:08:54;;;;;;;7.47;2.10;;;15.70;99.90;;;15.20;100.00;100868.88;3991182;29;20038;-74
2023/07/25 07:10:56;;;;;;;8.27;1.85;;;15.70;99.90;;;15.31;100.00;100872.91;3990017;29;20063;-74
2023/07/25 07:12:56;;;;;;;4.90;1.92;;;15.80;99.90;;;15.31;100.00;100867.59;3989697;29;20038;-74
2023/07/25 07:14:57;;;;;;;9.20;2.05;;;15.90;99.90;;;15.43;100.00;100879.41;3991935;29;20076;-75
2023/07/25 07:16:58;;;;;;;8.15;2.42;;;15.90;99.90;;;15.49;100.00;100876.88;3973720;29;20420;-75
2023/07/25 07:18:59;;;;;;;12.82;2.47;;;16.00;99.90;;;15.53;100.00;100879.19;3988721;29;20026;-76
2023/07/25 07:21:00;;;;;;;5.28;1.60;;;16.00;99.90;;;15.57;100.00;100880.44;3975110;29;20031;-77
2023/07/25 07:23:01;;;;;;;4.63;1.92;;;16.10;99.90;;;15.64;100.00;100881.38;3970131;29;20051;-76
2023/07/25 07:25:02;;;;;;;5.75;2.42;;;16.10;99.90;;;15.67;100.00;100875.69;3977301;29;20031;-76
2023/07/25 07:27:03;;;;;;;7.38;2.13;;;16.20;99.90;;;15.61;100.00;100869.25;3947383;30;20040;-77
2023/07/25 07:29:04;;;;;;;6.53;2.30;;;16.20;99.90;;;15.69;100.00;100878.97;3977822;29;20399;-76
2023/07/25 07:31:08;;;;;;;3.45;1.65;;;16.30;99.90;;;15.63;100.00;100874.38;3975051;29;20031;-77
2023/07/25 07:33:09;;;;;;;3.30;1.70;;;16.30;99.90;;;15.73;100.00;100896.22;3956115;30;20038;-77
2023/07/25 07:35:10;;;;;;;6.88;2.00;;;16.40;99.90;;;15.79;100.00;100893.63;3974540;29;20053;-76
2023/07/25 07:37:11;;;;;;;6.25;1.77;;;16.40;99.90;;;15.78;100.00;100897.28;3971483;29;20039;-76
2023/07/25 07:39:12;;;;;;;3.20;1.80;;;16.40;99.90;;;15.88;100.00;100910.31;3977584;29;20056;-76
2023/07/25 07:41:12;;;;;;;10.80;2.50;;;16.50;99.90;;;15.87;100.00;100906.81;3974545;29;20019;-76
2023/07/25 07:43:16;;;;;;;5.07;1.98;;;16.50;99.90;;;15.90;100.00;100911.78;3957896;30;20524;-76
2023/07/25 07:45:17;;;;;;;5.35;2.08;;;16.60;99.90;;;16.00;100.00;100909.66;3958205;30;20023;-76
2023/07/25 07:47:18;;;;;;;8.05;2.00;;;16.60;99.90;;;16.07;100.00;100920.34;3955795;30;20115;-76
2023/07/25 07:49:18;;;;;;;4.00;1.60;;;16.60;99.90;;;16.17;100.00;100920.88;3955256;30;20036;-76
2023/07/25 07:51:19;;;;;;;7.13;2.75;;;16.70;99.90;;;16.32;100.00;100921.66;3977415;29;20034;-76
2023/07/25 07:53:20;;;;;;;4.95;2.53;;;16.80;99.90;;;16.33;100.00;100923.31;3958372;30;20063;-76
2023/07/25 07:55:22;;;;;;;4.32;1.35;;;16.90;99.90;;;16.49;100.00;100933.72;3961243;30;20500;-76
2023/07/25 07:57:23;;;;;;;3.67;1.60;;;17.00;99.90;;;16.43;100.00;100923.81;3977488;29;20047;-76
2023/07/25 07:59:24;;;;;;;5.47;2.15;;;17.10;99.90;;;16.50;100.00;100916.72;3972898;29;20018;-76
2023/07/25 08:01:24;;;;;;;3.47;1.45;;;17.10;99.90;;;16.63;100.00;100924.06;3976051;29;20027;-76
2023/07/25 08:03:26;;;;;;;6.32;2.28;;;17.10;99.90;;;16.76;100.00;100921.50;3960271;30;20038;-76
2023/07/25 08:05:26;;;;;;;7.38;2.67;;;17.20;99.90;;;16.84;100.00;100924.06;3977083;29;20110;-76
2023/07/25 08:07:27;;;;;;;7.05;2.00;;;17.40;99.90;;;16.82;100.00;100926.06;3976710;29;20043;-76
2023/07/25 08:09:28;;;;;;;13.00;2.42;;;17.40;99.90;;;16.81;100.00;100923.59;3960304;30;20586;-76
2023/07/25 08:11:29;;;;;;;5.03;2.10;;;17.40;99.90;;;16.74;100.00;100930.69;3956560;30;20031;-76
2023/07/25 08:13:30;;;;;;;4.95;1.60;;;17.40;99.90;;;16.78;100.00;100924.00;3970513;29;20042;-76
2023/07/25 08:15:31;;;;;;;5.07;1.70;;;17.40;99.90;;;16.84;100.00;100933.88;3959972;30;20038;-76
2023/07/25 08:17:31;;;;;;;3.13;1.63;;;17.50;99.90;;;16.98;100.00;100932.97;3958727;30;20042;-76